Time;durP1;ratioP1;P1;durP2;ratioP2;P2;SDS_P1;SDS_P2;PMS_P1;PMS_P2;Temp;Humidity;BMP_temperature;BMP_pressure;BME280_temperature;BME280_humidity;BME280_pressure;Samples;Min_cycle;Max_cycle;Signal;HPM_P1;HPM_P2
2023/10/03 00:00:36;;;;;;;3.80;1.40;;;;;;;7.66;100.00;100999.88;104762;1254;60504;-52
2023/10/03 00:03:08;;;;;;;3.40;1.30;;;;;;;7.66;100.00;101000.23;104962;1253;59753;-53
2023/10/03 00:05:38;;;;;;;3.80;1.10;;;;;;;7.67;100.00;101001.11;104649;1253;73832;-53
2023/10/03 00:08:06;;;;;;;3.00;1.00;;;;;;;7.66;100.00;101000.93;104589;1259;67107;-53
2023/10/03 00:10:33;;;;;;;2.70;1.10;;;;;;;7.67;100.00;101001.11;104505;1258;72790;-53
2023/10/03 00:13:01;;;;;;;3.00;1.00;;;;;;;7.69;100.00;101000.71;106563;1255;59816;-53
2023/10/03 00:15:30;;;;;;;3.60;1.30;;;;;;;7.70;100.00;101003.73;104986;1256;59867;-54
2023/10/03 00:17:57;;;;;;;5.50;1.10;;;;;;;7.73;100.00;101004.04;104853;1253;71864;-50
2023/10/03 00:20:25;;;;;;;2.90;1.10;;;;;;;7.75;100.00;101009.71;104982;1253;65855;-52
2023/10/03 00:22:53;;;;;;;5.50;1.30;;;;;;;7.75;100.00;101005.27;104786;1258;73198;-53
2023/10/03 00:25:25;;;;;;;2.20;1.20;;;;;;;7.69;100.00;101006.08;104786;1253;59232;-53
2023/10/03 00:27:54;;;;;;;3.20;0.90;;;;;;;7.57;100.00;101005.73;104788;1253;59986;-52
2023/10/03 00:30:25;;;;;;;5.00;1.80;;;;;;;7.44;100.00;101008.10;104688;1258;74058;-49
2023/10/03 00:32:54;;;;;;;2.50;1.20;;;;;;;7.35;100.00;101009.48;104568;1253;67087;-53
2023/10/03 00:35:21;;;;;;;2.80;1.00;;;;;;;7.30;100.00;101005.28;108772;1253;72430;-54
2023/10/03 00:37:51;;;;;;;3.30;1.10;;;;;;;7.30;100.00;101007.61;109010;1253;60915;-54
2023/10/03 00:42:49;;;;;;;2.70;1.10;;;;;;;7.33;100.00;101003.97;108790;1253;71533;-54
2023/10/03 00:45:21;;;;;;;2.20;1.10;;;;;;;7.38;100.00;101003.38;108953;1254;66169;-54
2023/10/03 00:47:48;;;;;;;2.80;1.00;;;;;;;7.42;100.00;101002.40;109004;1254;73121;-54
2023/10/03 00:50:19;;;;;;;3.00;1.10;;;;;;;7.46;100.00;101005.58;108907;1255;60636;-54
2023/10/03 00:52:49;;;;;;;7.40;1.40;;;;;;;7.45;100.00;101005.75;108792;1253;58868;-54
2023/10/03 00:55:16;;;;;;;2.90;1.30;;;;;;;7.42;100.00;101005.61;108737;1253;73590;-54
2023/10/03 00:57:44;;;;;;;4.70;1.40;;;;;;;7.39;100.00;101004.80;108961;1254;65790;-54
2023/10/03 01:00:15;;;;;;;5.80;1.60;;;;;;;7.37;100.00;101003.73;109091;1254;71391;-54
2023/10/03 01:02:47;;;;;;;3.70;1.30;;;;;;;7.34;100.00;101005.20;108924;1256;60056;-54
2023/10/03 01:05:16;;;;;;;2.80;1.20;;;;;;;7.32;100.00;101005.23;108980;1253;58828;-53
2023/10/03 01:07:49;;;;;;;3.20;1.50;;;;;;;7.28;100.00;101009.41;108864;1254;75166;-53
2023/10/03 01:10:18;;;;;;;4.70;1.30;;;;;;;7.26;100.00;101007.30;106178;1254;67583;-53
2023/10/03 01:12:47;;;;;;;3.60;1.00;;;;;;;7.24;100.00;101002.85;108850;1254;71463;-53
2023/10/03 01:15:21;;;;;;;4.70;1.40;;;;;;;7.23;100.00;101001.09;108811;1254;60563;-54
2023/10/03 01:17:53;;;;;;;3.60;1.20;;;;;;;7.24;100.00;101002.32;105589;1255;59350;-52
2023/10/03 01:20:28;;;;;;;4.40;1.10;;;;;;;7.25;100.00;100998.91;104696;1255;72125;-52
2023/10/03 01:22:56;;;;;;;2.30;0.90;;;;;;;7.26;100.00;101003.72;104728;1256;65495;-52
2023/10/03 01:25:27;;;;;;;5.10;1.20;;;;;;;7.27;100.00;100999.42;104664;1258;72818;-52
2023/10/03 01:27:56;;;;;;;3.10;1.10;;;;;;;7.29;100.00;100997.98;104802;1258;61716;-51
2023/10/03 01:30:24;;;;;;;3.30;1.00;;;;;;;7.31;100.00;100995.09;104738;1254;62390;-52
2023/10/03 01:32:53;;;;;;;3.90;1.30;;;;;;;7.34;100.00;100991.81;104833;1254;73053;-51
2023/10/03 01:35:22;;;;;;;4.30;1.40;;;;;;;7.35;100.00;100989.13;104745;1255;67158;-51
2023/10/03 01:37:50;;;;;;;4.00;1.50;;;;;;;7.38;100.00;100988.02;105858;1256;71489;-52
2023/10/03 01:40:19;;;;;;;4.90;1.60;;;;;;;7.39;100.00;100986.94;104615;1255;60181;-51
2023/10/03 01:42:47;;;;;;;2.60;1.40;;;;;;;7.39;100.00;100987.64;105001;1253;60188;-53
2023/10/03 01:45:23;;;;;;;3.30;1.20;;;;;;;7.35;100.00;100987.88;104520;1257;71350;-51
2023/10/03 01:47:51;;;;;;;2.60;1.10;;;;;;;7.27;100.00;100988.90;104835;1258;65667;-51
2023/10/03 01:50:19;;;;;;;2.30;1.00;;;;;;;7.21;100.00;100992.75;104862;1255;71549;-49
2023/10/03 01:52:47;;;;;;;3.80;1.30;;;;;;;7.16;100.00;100988.16;105764;1254;61619;-52
2023/10/03 01:55:17;;;;;;;1.90;0.90;;;;;;;7.12;100.00;100986.80;104725;1258;59634;-51
2023/10/03 01:57:46;;;;;;;3.90;1.10;;;;;;;7.09;100.00;100987.02;104384;1260;73540;-50
2023/10/03 02:00:50;;;;;;;4.20;1.10;;;;;;;7.09;100.00;100987.02;104455;1260;67043;-53
2023/10/03 02:03:12;;;;;;;3.90;1.00;;;;;;;7.09;100.00;100986.12;104941;1256;71431;-51
2023/10/03 02:05:43;;;;;;;2.00;0.80;;;;;;;7.10;100.00;100981.29;104849;1258;60812;-50
2023/10/03 02:08:17;;;;;;;2.90;1.00;;;;;;;7.10;100.00;100980.39;108841;1254;60057;-53
2023/10/03 02:10:46;;;;;;;4.10;1.00;;;;;;;7.07;100.00;100979.91;108442;1254;73022;-54
2023/10/03 02:13:17;;;;;;;5.60;1.10;;;;;;;7.04;100.00;100982.98;104771;1261;65678;-51
2023/10/03 02:15:49;;;;;;;3.10;0.80;;;;;;;7.05;100.00;100980.31;105070;1256;71425;-51
2023/10/03 02:18:21;;;;;;;4.60;1.10;;;;;;;7.07;100.00;100984.36;105677;1260;59754;-54
2023/10/03 02:20:53;;;;;;;5.60;1.10;;;;;;;7.10;100.00;100986.83;105883;1254;59613;-52
2023/10/03 02:23:25;;;;;;;4.00;1.10;;;;;;;7.11;100.00;100985.57;104512;1256;73090;-52
2023/10/03 02:25:57;;;;;;;4.50;1.70;;;;;;;7.11;100.00;100987.53;106357;1254;67693;-49
2023/10/03 02:28:26;;;;;;;6.80;1.60;;;;;;;7.11;100.00;100985.74;104649;1256;73417;-52
2023/10/03 02:30:57;;;;;;;6.90;1.40;;;;;;;7.12;100.00;100986.45;105210;1256;62226;-53
2023/10/03 02:33:24;;;;;;;2.90;0.90;;;;;;;7.13;100.00;100988.40;104632;1256;60078;-52
2023/10/03 02:35:52;;;;;;;2.10;0.90;;;;;;;7.11;100.00;100990.39;105200;1256;71862;-51
2023/10/03 02:38:24;;;;;;;4.00;1.20;;;;;;;7.10;100.00;100986.65;104810;1254;66849;-50
2023/10/03 02:41:01;;;;;;;3.20;1.10;;;;;;;7.08;100.00;100987.38;104777;1258;72512;-50
2023/10/03 02:43:34;;;;;;;5.60;1.00;;;;;;;7.05;100.00;100987.44;105309;1254;61136;-54
2023/10/03 02:46:07;;;;;;;4.60;1.30;;;;;;;7.01;100.00;100986.61;105207;1258;59783;-52
2023/10/03 02:48:35;;;;;;;5.20;1.10;;;;;;;6.95;100.00;100984.55;104790;1256;72100;-50
2023/10/03 02:51:05;;;;;;;3.00;1.20;;;;;;;6.93;100.00;100983.33;105110;1255;65670;-51
2023/10/03 02:53:35;;;;;;;3.30;1.20;;;;;;;6.93;100.00;100980.82;105525;1260;72308;-49
2023/10/03 02:56:04;;;;;;;4.50;1.20;;;;;;;6.94;100.00;100982.95;107523;1255;60557;-53
2023/10/03 02:58:32;;;;;;;3.30;1.30;;;;;;;6.96;100.00;100980.61;104512;1255;60724;-50
2023/10/03 03:00:59;;;;;;;3.10;1.20;;;;;;;6.97;100.00;100981.66;105552;1260;72613;-54
2023/10/03 03:03:29;;;;;;;2.80;1.30;;;;;;;6.96;100.00;100980.79;104640;1260;66899;-53
2023/10/03 03:05:58;;;;;;;6.20;1.60;;;;;;;6.95;100.00;100984.38;105168;1257;73179;-50
2023/10/03 03:08:28;;;;;;;4.50;1.30;;;;;;;6.92;100.00;100991.55;106848;1256;60373;-50
2023/10/03 03:10:57;;;;;;;4.60;1.30;;;;;;;6.88;100.00;100994.99;106916;1256;60467;-52
2023/10/03 03:13:29;;;;;;;2.50;0.90;;;;;;;6.82;100.00;100999.17;105858;1253;73877;-50
2023/10/03 03:16:00;;;;;;;4.80;1.50;;;;;;;6.77;100.00;100994.96;105441;1253;66878;-52
2023/10/03 03:18:31;;;;;;;3.30;1.00;;;;;;;6.74;100.00;100997.67;105684;1256;75006;-49
2023/10/03 03:21:02;;;;;;;2.80;1.10;;;;;;;6.72;100.00;101000.20;104576;1255;60737;-51
2023/10/03 03:23:31;;;;;;;4.30;1.30;;;;;;;6.67;100.00;100999.02;104738;1257;60604;-51
2023/10/03 03:28:44;;;;;;;2.60;1.00;;;;;;;6.54;100.00;100991.88;104677;1256;64973;-50
2023/10/03 03:31:32;;;;;;;3.90;1.30;;;;;;;6.55;100.00;100987.20;104859;1254;71465;-51
2023/10/03 03:34:02;;;;;;;3.60;1.10;;;;;;;6.58;100.00;100985.91;108972;1256;62350;-52
2023/10/03 03:36:30;;;;;;;6.30;1.30;;;;;;;6.61;100.00;100984.29;108981;1252;60038;-54
2023/10/03 03:41:55;;;;;;;4.60;1.10;;;;;;;6.68;100.00;100986.34;108717;1254;65078;-54
2023/10/03 03:44:25;;;;;;;4.10;1.00;;;;;;;6.67;100.00;100985.64;108874;1256;72794;-53
2023/10/03 03:46:53;;;;;;;3.30;1.10;;;;;;;6.61;100.00;100983.04;108757;1254;59916;-53
2023/10/03 03:49:23;;;;;;;3.30;1.30;;;;;;;6.55;100.00;100989.17;108847;1255;59796;-52
2023/10/03 03:51:59;;;;;;;3.80;1.40;;;;;;;6.52;100.00;100988.33;105093;1257;73881;-52
2023/10/03 03:54:26;;;;;;;2.60;1.00;;;;;;;6.50;100.00;100983.17;104653;1256;65398;-50
2023/10/03 03:56:54;;;;;;;5.20;1.20;;;;;;;6.50;100.00;100981.39;104724;1256;71468;-49
2023/10/03 03:59:22;;;;;;;4.20;1.10;;;;;;;6.50;100.00;100978.72;104477;1258;61939;-52
2023/10/03 04:01:50;;;;;;;3.60;1.30;;;;;;;6.47;100.00;100976.23;104573;1258;60480;-49
2023/10/03 04:04:19;;;;;;;3.00;0.90;;;;;;;6.43;100.00;100974.17;108956;1255;72838;-51
2023/10/03 04:06:47;;;;;;;3.60;0.90;;;;;;;6.41;100.00;100975.98;108917;1256;65102;-51
2023/10/03 04:09:14;;;;;;;3.70;1.30;;;;;;;6.41;100.00;100977.04;108908;1258;71492;-51
2023/10/03 04:11:42;;;;;;;3.80;0.90;;;;;;;6.40;100.00;100977.77;108866;1255;60459;-52
2023/10/03 04:14:09;;;;;;;2.50;1.20;;;;;;;6.36;100.00;100974.60;109045;1254;58849;-53
2023/10/03 04:16:41;;;;;;;5.50;1.80;;;;;;;6.34;100.00;100977.48;108839;1254;73860;-54
2023/10/03 04:19:10;;;;;;;2.20;1.20;;;;;;;6.31;100.00;100974.29;106841;1258;66940;-52
2023/10/03 04:21:40;;;;;;;2.60;1.10;;;;;;;6.33;100.00;100978.56;104515;1256;70468;-52
2023/10/03 04:24:11;;;;;;;4.20;1.10;;;;;;;6.37;100.00;100984.94;104492;1255;62609;-53
2023/10/03 04:26:42;;;;;;;1.80;0.90;;;;;;;6.38;100.00;100990.08;105850;1258;60560;-51
2023/10/03 04:29:13;;;;;;;1.80;0.90;;;;;;;6.34;100.00;100989.78;106690;1256;73984;-50
2023/10/03 04:31:43;;;;;;;3.20;1.00;;;;;;;6.29;100.00;100992.88;107250;1256;69258;-51
2023/10/03 04:34:11;;;;;;;4.70;1.10;;;;;;;6.29;100.00;100991.09;105756;1258;73619;-51
2023/10/03 04:36:41;;;;;;;8.20;1.10;;;;;;;6.31;100.00;100995.86;104480;1254;60812;-51
2023/10/03 04:39:10;;;;;;;2.90;1.10;;;;;;;6.33;100.00;100995.49;108754;1254;59016;-51
2023/10/03 04:41:43;;;;;;;2.00;1.10;;;;;;;6.36;100.00;100999.92;105339;1260;73858;-52
2023/10/03 04:44:16;;;;;;;2.50;1.00;;;;;;;6.38;100.00;100999.54;104780;1256;68152;-53
2023/10/03 04:46:45;;;;;;;2.70;1.30;;;;;;;6.40;100.00;101000.77;105245;1257;71966;-51
2023/10/03 04:49:13;;;;;;;3.80;1.40;;;;;;;6.44;100.00;101001.45;105182;1256;60349;-52
2023/10/03 04:51:40;;;;;;;2.60;0.90;;;;;;;6.50;100.00;100998.86;104843;1256;60527;-52
2023/10/03 04:54:08;;;;;;;7.10;1.60;;;;;;;6.57;100.00;100997.88;104581;1258;73852;-50
2023/10/03 04:56:36;;;;;;;2.90;1.10;;;;;;;6.64;100.00;100998.52;104860;1258;65562;-51
2023/10/03 04:59:03;;;;;;;4.30;1.00;;;;;;;6.67;100.00;100997.76;104620;1256;71433;-53
2023/10/03 05:01:32;;;;;;;4.00;1.00;;;;;;;6.70;100.00;101001.30;104748;1256;62618;-51
2023/10/03 05:04:03;;;;;;;6.10;1.10;;;;;;;6.74;100.00;101005.52;104890;1261;60980;-50
2023/10/03 05:06:31;;;;;;;2.60;0.80;;;;;;;6.75;100.00;101004.43;105940;1260;74242;-52
2023/10/03 05:08:59;;;;;;;5.00;1.10;;;;;;;6.76;100.00;101001.22;104685;1259;67662;-52
2023/10/03 05:11:26;;;;;;;4.30;1.00;;;;;;;6.81;100.00;101005.26;105931;1258;72619;-50
2023/10/03 05:13:54;;;;;;;3.50;1.20;;;;;;;6.91;100.00;101002.81;105029;1256;60488;-52
2023/10/03 05:16:22;;;;;;;3.80;1.30;;;;;;;7.03;100.00;101002.09;104619;1254;60655;-52
2023/10/03 05:18:50;;;;;;;3.30;1.00;;;;;;;7.20;100.00;101001.67;104876;1258;72681;-52
2023/10/03 05:21:17;;;;;;;8.70;0.80;;;;;;;7.39;100.00;100999.42;104899;1258;66760;-51
2023/10/03 05:23:46;;;;;;;2.60;1.00;;;;;;;7.59;100.00;100996.24;104834;1256;71475;-53
2023/10/03 05:26:19;;;;;;;4.50;1.40;;;;;;;7.78;100.00;101000.21;104741;1258;60559;-51
2023/10/03 05:28:46;;;;;;;4.90;1.00;;;;;;;7.96;100.00;101003.29;108899;1256;59404;-52
2023/10/03 05:31:15;;;;;;;3.00;1.10;;;;;;;8.11;100.00;101001.59;105297;1257;76933;-51
2023/10/03 05:33:42;;;;;;;1.70;1.00;;;;;;;8.23;100.00;101004.58;105102;1259;65981;-53
2023/10/03 05:36:16;;;;;;;2.20;1.00;;;;;;;8.32;100.00;101002.98;104653;1256;70816;-53
2023/10/03 05:38:43;;;;;;;3.80;1.10;;;;;;;8.41;100.00;101001.23;105779;1256;61765;-50
2023/10/03 05:41:19;;;;;;;4.60;1.00;;;;;;;8.50;100.00;101002.66;104657;1259;60354;-51
2023/10/03 05:43:48;;;;;;;3.60;1.10;;;;;;;8.60;100.00;101004.23;104875;1258;72681;-50
2023/10/03 05:46:15;;;;;;;6.00;1.50;;;;;;;8.71;100.00;101002.21;105206;1259;65990;-52
2023/10/03 05:48:43;;;;;;;5.00;1.60;;;;;;;8.83;100.00;101001.08;106956;1258;72978;-50
2023/10/03 05:51:12;;;;;;;3.20;1.30;;;;;;;8.95;100.00;100996.70;105264;1259;60562;-51
2023/10/03 05:53:42;;;;;;;3.90;1.60;;;;;;;9.08;100.00;100996.56;104666;1255;60909;-52
2023/10/03 05:56:12;;;;;;;6.70;1.80;;;;;;;9.22;100.00;100989.81;104627;1260;73830;-49
2023/10/03 05:58:40;;;;;;;6.90;1.80;;;;;;;9.36;100.00;100986.43;104702;1259;67354;-52
2023/10/03 06:01:07;;;;;;;8.30;1.50;;;;;;;9.52;100.00;100989.29;104900;1254;73175;-53
2023/10/03 06:03:36;;;;;;;5.50;2.00;;;;;;;9.68;100.00;100998.20;104787;1262;60552;-50
2023/10/03 06:06:04;;;;;;;5.00;1.50;;;;;;;9.86;100.00;101006.34;108924;1254;59183;-53
2023/10/03 06:08:32;;;;;;;6.30;1.90;;;;;;;10.01;100.00;101007.74;105304;1254;74251;-52
2023/10/03 06:11:02;;;;;;;8.70;2.60;;;;;;;10.14;100.00;100998.46;106733;1256;66235;-50
2023/10/03 06:13:30;;;;;;;5.00;2.20;;;;;;;10.26;100.00;100998.87;104894;1254;74911;-51
2023/10/03 06:15:59;;;;;;;12.00;3.50;;;;;;;10.38;100.00;101003.02;104878;1254;61785;-51
2023/10/03 06:18:29;;;;;;;9.30;2.70;;;;;;;10.50;100.00;100991.91;104798;1259;60844;-51
2023/10/03 06:20:57;;;;;;;8.30;4.20;;;;;;;10.61;100.00;100982.78;108906;1253;74032;-53
2023/10/03 06:23:25;;;;;;;14.70;3.40;;;;;;;10.75;100.00;100983.30;106212;1254;67153;-52
2023/10/03 06:25:53;;;;;;;9.00;3.20;;;;;;;10.88;100.00;100983.62;105717;1259;73561;-52
2023/10/03 06:28:21;;;;;;;9.90;3.10;;;;;;;11.01;100.00;100985.02;104781;1260;62172;-52
2023/10/03 06:30:50;;;;;;;8.00;3.00;;;;;;;11.14;100.00;100985.16;104743;1260;59778;-51
2023/10/03 06:33:18;;;;;;;6.60;1.90;;;;;;;11.27;100.00;100982.92;109005;1257;74255;-53
2023/10/03 06:35:46;;;;;;;7.90;2.20;;;;;;;11.40;100.00;100980.73;106049;1259;67502;-52
2023/10/03 06:38:15;;;;;;;4.90;2.30;;;;;;;11.54;100.00;100980.27;108976;1254;71305;-55
2023/10/03 06:40:43;;;;;;;6.20;1.70;;;;;;;11.67;100.00;100984.69;109021;1256;64164;-52
2023/10/03 06:43:11;;;;;;;6.50;2.30;;;;;;;11.81;100.00;100980.48;108940;1256;60627;-54
2023/10/03 06:45:38;;;;;;;8.30;2.10;;;;;;;11.94;100.00;100976.98;108943;1253;73827;-53
2023/10/03 06:48:06;;;;;;;4.70;1.70;;;;;;;12.07;100.00;100978.48;108847;1258;65683;-52
2023/10/03 06:50:33;;;;;;;7.30;2.50;;;;;;;12.20;100.00;100980.02;108954;1254;71787;-53
2023/10/03 06:53:01;;;;;;;4.50;2.10;;;;;;;12.31;100.00;100980.88;108908;1258;60094;-51
2023/10/03 06:55:28;;;;;;;8.10;2.50;;;;;;;12.42;100.00;100983.19;108961;1255;58544;-52
2023/10/03 06:57:56;;;;;;;4.70;1.60;;;;;;;12.52;100.00;100981.56;106180;1258;73942;-49
2023/10/03 07:00:23;;;;;;;6.00;2.00;;;;;;;12.60;100.00;100982.14;104763;1261;65709;-51
2023/10/03 07:02:52;;;;;;;6.10;1.90;;;;;;;12.69;100.00;100982.52;104925;1258;71674;-51
2023/10/03 07:05:20;;;;;;;7.40;2.60;;;;;;;12.80;100.00;100980.48;108906;1256;61713;-53
2023/10/03 07:07:47;;;;;;;5.50;2.10;;;;;;;12.90;100.00;100977.22;109004;1254;58949;-52
2023/10/03 07:10:15;;;;;;;5.40;1.90;;;;;;;13.02;100.00;100976.78;108956;1254;72632;-52
2023/10/03 07:12:42;;;;;;;7.10;2.70;;;;;;;13.12;100.00;100975.29;108855;1255;65525;-53
2023/10/03 07:15:11;;;;;;;4.90;2.00;;;;;;;13.24;100.00;100976.80;108904;1254;70452;-53
2023/10/03 07:17:39;;;;;;;5.30;1.90;;;;;;;13.35;100.00;100975.10;107758;1256;60562;-51
2023/10/03 07:20:08;;;;;;;6.10;1.80;;;;;;;13.46;100.00;100968.89;108908;1256;59760;-54
2023/10/03 07:22:35;;;;;;;8.10;2.30;;;;;;;13.56;100.00;100976.05;106802;1260;72685;-54
2023/10/03 07:25:06;;;;;;;5.80;1.80;;;;;;;13.66;100.00;100973.86;104831;1256;66991;-53
2023/10/03 07:27:34;;;;;;;5.50;1.50;;;;;;;13.73;100.00;100971.20;104757;1255;73532;-52
2023/10/03 07:30:02;;;;;;;5.50;2.20;;;;;;;13.80;100.00;100963.51;105418;1258;60590;-53
2023/10/03 07:32:34;;;;;;;3.20;1.20;;;;;;;13.87;100.00;100959.59;104756;1259;60795;-53
2023/10/03 07:35:02;;;;;;;2.90;1.40;;;;;;;13.95;100.00;100960.70;104803;1256;72652;-53
2023/10/03 07:37:30;;;;;;;4.70;1.60;;;;;;;14.04;100.00;100958.13;104800;1255;67576;-53
2023/10/03 07:39:57;;;;;;;4.80;1.60;;;;;;;14.15;100.00;100959.46;104704;1259;71441;-53
2023/10/03 07:42:24;;;;;;;3.10;1.30;;;;;;;14.24;100.00;100961.05;104562;1259;60881;-53
2023/10/03 07:44:52;;;;;;;5.10;1.50;;;;;;;14.32;100.00;100966.63;104631;1260;63071;-54
2023/10/03 07:47:22;;;;;;;4.40;1.50;;;;;;;14.41;100.00;100970.62;106429;1258;72646;-52
2023/10/03 07:49:51;;;;;;;4.80;1.40;;;;;;;14.49;100.00;100972.42;104750;1256;67876;-52
2023/10/03 07:52:18;;;;;;;3.10;1.30;;;;;;;14.59;100.00;100968.55;104701;1254;70989;-53
2023/10/03 07:54:49;;;;;;;4.50;1.50;;;;;;;14.69;100.00;100963.21;104696;1258;62426;-51
2023/10/03 07:57:17;;;;;;;3.20;1.20;;;;;;;14.76;100.00;100968.44;105023;1255;60458;-53
2023/10/03 07:59:44;;;;;;;5.60;1.70;;;;;;;14.84;100.00;100968.45;104608;1256;71683;-53
2023/10/03 08:02:12;;;;;;;4.40;1.90;;;;;;;14.89;100.00;100973.66;104593;1258;66207;-53
2023/10/03 08:04:41;;;;;;;4.40;1.80;;;;;;;14.93;100.00;100977.79;104653;1256;74889;-54
2023/10/03 08:07:14;;;;;;;5.50;1.80;;;;;;;14.98;100.00;100974.64;108856;1255;60139;-55
2023/10/03 08:09:46;;;;;;;6.90;1.80;;;;;;;15.05;100.00;100971.25;105712;1259;60973;-52
2023/10/03 08:12:14;;;;;;;4.50;1.30;;;;;;;15.12;100.00;100967.29;107000;1259;72998;-53
2023/10/03 08:14:42;;;;;;;4.40;1.40;;;;;;;15.22;100.00;100967.92;104809;1254;65702;-54
2023/10/03 08:17:11;;;;;;;6.90;1.80;;;;;;;15.31;100.00;100965.13;104982;1259;71478;-54
2023/10/03 08:19:40;;;;;;;5.00;1.50;;;;;;;15.38;100.00;100964.95;104759;1259;62193;-52
2023/10/03 08:22:12;;;;;;;7.30;2.20;;;;;;;15.45;100.00;100969.86;105188;1258;60998;-52
2023/10/03 08:24:43;;;;;;;7.80;1.70;;;;;;;15.50;100.00;100972.29;104803;1259;72730;-53
2023/10/03 08:27:18;;;;;;;4.90;1.40;;;;;;;15.57;100.00;100971.30;105635;1259;68818;-53
2023/10/03 08:29:50;;;;;;;4.60;1.20;;;;;;;15.63;100.00;100966.47;105006;1259;74340;-50
2023/10/03 08:32:19;;;;;;;4.50;2.20;;;;;;;15.72;100.00;100964.01;104781;1258;60563;-55
2023/10/03 08:34:47;;;;;;;3.90;1.80;;;;;;;15.83;100.00;100964.91;105495;1258;62182;-53
2023/10/03 08:37:21;;;;;;;4.20;1.50;;;;;;;15.92;100.00;100965.88;104830;1254;73821;-52
2023/10/03 08:39:50;;;;;;;3.80;1.10;;;;;;;16.02;100.00;100964.47;104858;1262;67132;-53
2023/10/03 08:42:20;;;;;;;3.60;1.50;;;;;;;16.11;100.00;100956.75;104947;1258;72782;-53
2023/10/03 08:44:54;;;;;;;3.00;1.50;;;;;;;16.20;100.00;100957.36;104878;1259;60458;-53
2023/10/03 08:47:33;;;;;;;3.90;1.50;;;;;;;16.28;100.00;100951.14;104835;1260;60483;-52
2023/10/03 08:50:11;;;;;;;5.00;1.20;;;;;;;16.36;100.00;100948.34;105161;1259;74243;-52
2023/10/03 08:52:49;;;;;;;2.90;1.40;;;;;;;16.42;100.00;100942.97;104858;1258;66118;-53
2023/10/03 08:55:19;;;;;;;6.70;1.90;;;;;;;16.48;100.00;100946.44;105597;1254;73193;-54
2023/10/03 08:57:48;;;;;;;3.00;1.30;;;;;;;16.55;100.00;100943.52;104768;1260;60607;-54
2023/10/03 09:00:16;;;;;;;3.40;1.40;;;;;;;16.62;100.00;100943.52;105126;1263;60613;-55
2023/10/03 09:02:47;;;;;;;4.90;1.70;;;;;;;16.69;100.00;100942.23;104884;1265;75147;-55
2023/10/03 09:05:20;;;;;;;4.00;1.30;;;;;;;16.76;100.00;100937.88;104976;1259;66998;-53
2023/10/03 09:07:49;;;;;;;5.20;1.80;;;;;;;16.82;100.00;100930.81;105120;1259;71481;-54
2023/10/03 09:10:24;;;;;;;4.30;1.30;;;;;;;16.86;100.00;100931.86;104798;1252;61164;-54
2023/10/03 09:13:04;;;;;;;4.20;1.80;;;;;;;16.89;100.00;100925.75;104921;1259;60473;-52
2023/10/03 09:15:37;;;;;;;7.30;1.70;;;;;;;16.92;100.00;100926.09;105553;1256;73916;-53
2023/10/03 09:18:09;;;;;;;2.60;1.40;;;;;;;16.95;100.00;100927.92;106316;1259;67422;-54
2023/10/03 09:20:37;;;;;;;4.40;1.50;;;;;;;16.97;100.00;100933.80;108984;1254;71154;-52
2023/10/03 09:23:07;;;;;;;3.50;1.90;;;;;;;17.00;100.00;100937.60;105162;1254;61839;-53
2023/10/03 09:25:38;;;;;;;4.70;1.70;;;;;;;17.07;100.00;100930.02;105500;1259;60589;-53
2023/10/03 09:28:05;;;;;;;2.20;1.30;;;;;;;17.16;100.00;100928.57;104884;1258;72661;-51
2023/10/03 09:30:39;;;;;;;5.20;1.30;;;;;;;17.24;100.00;100925.70;104814;1258;65643;-52
2023/10/03 09:33:08;;;;;;;3.80;1.60;;;;;;;17.30;100.00;100930.08;107366;1259;71471;-53
2023/10/03 09:35:39;;;;;;;3.90;1.20;;;;;;;17.36;100.00;100936.83;106351;1259;60384;-53
2023/10/03 09:38:08;;;;;;;4.00;1.90;;;;;;;17.41;100.00;100935.64;107381;1259;58854;-53
2023/10/03 09:40:50;;;;;;;6.90;3.20;;;;;;;17.47;100.00;100940.54;105386;1254;73800;-52
2023/10/03 09:43:19;;;;;;;5.20;2.10;;;;;;;17.51;100.00;100933.25;108941;1254;67174;-54
2023/10/03 09:45:47;;;;;;;4.90;2.40;;;;;;;17.52;100.00;100935.75;109058;1258;72637;-53
2023/10/03 09:48:15;;;;;;;7.90;3.00;;;;;;;17.49;100.00;100932.83;108900;1254;60286;-54
2023/10/03 09:50:51;;;;;;;5.50;2.70;;;;;;;17.44;100.00;100937.80;109094;1254;58816;-55
2023/10/03 09:53:25;;;;;;;7.40;2.40;;;;;;;17.38;100.00;100937.77;108844;1255;75205;-54
2023/10/03 09:55:52;;;;;;;3.50;1.70;;;;;;;17.33;100.00;100935.36;108900;1254;65703;-54
2023/10/03 09:58:24;;;;;;;9.00;2.00;;;;;;;17.25;100.00;100936.55;108881;1254;72663;-53
2023/10/03 10:00:53;;;;;;;2.10;1.20;;;;;;;17.19;100.00;100937.23;108819;1254;60527;-54
2023/10/03 10:03:27;;;;;;;5.10;1.90;;;;;;;17.14;100.00;100936.30;108928;1254;59615;-54
2023/10/03 10:05:59;;;;;;;2.60;1.50;;;;;;;17.11;100.00;100933.55;108962;1254;73930;-55
2023/10/03 10:08:41;;;;;;;4.30;1.60;;;;;;;17.11;100.00;100936.23;109074;1257;66991;-51
2023/10/03 10:11:09;;;;;;;2.80;1.60;;;;;;;17.15;100.00;100932.63;108795;1254;71485;-53
2023/10/03 10:13:37;;;;;;;4.10;1.90;;;;;;;17.18;100.00;100934.61;106450;1260;61687;-50
2023/10/03 10:16:11;;;;;;;3.60;1.70;;;;;;;17.23;100.00;100935.79;108913;1254;61840;-54
2023/10/03 10:18:45;;;;;;;5.20;2.50;;;;;;;17.27;100.00;100936.27;106978;1254;74020;-53
2023/10/03 10:21:30;;;;;;;3.60;1.70;;;;;;;17.29;100.00;100935.23;104776;1260;66157;-51
2023/10/03 10:24:20;;;;;;;3.50;1.50;;;;;;;17.32;100.00;100935.05;104826;1260;71460;-54
2023/10/03 10:26:54;;;;;;;4.30;1.80;;;;;;;17.35;100.00;100930.54;108900;1254;59065;-53
2023/10/03 10:29:24;;;;;;;2.00;1.40;;;;;;;17.39;100.00;100923.05;107996;1257;60569;-53
2023/10/03 10:32:00;;;;;;;2.10;1.30;;;;;;;17.46;100.00;100917.90;105929;1259;74059;-55
2023/10/03 10:34:29;;;;;;;6.10;2.00;;;;;;;17.55;100.00;100915.93;105625;1259;65823;-55
2023/10/03 10:37:05;;;;;;;4.20;1.50;;;;;;;17.63;100.00;100913.51;104871;1254;71410;-51
2023/10/03 10:40:09;;;;;;;3.60;1.90;;;;;;;17.69;100.00;100912.96;105331;1257;60560;-52
2023/10/03 10:42:59;;;;;;;4.50;2.30;;;;;;;17.73;100.00;100910.02;105333;1260;60749;-52
2023/10/03 10:45:28;;;;;;;4.00;1.70;;;;;;;17.75;100.00;100907.90;104805;1254;74317;-51
2023/10/03 10:47:55;;;;;;;2.70;1.60;;;;;;;17.79;100.00;100907.83;108861;1253;66265;-54
2023/10/03 10:50:26;;;;;;;4.90;1.50;;;;;;;17.85;100.00;100911.86;105219;1260;73066;-54
2023/10/03 10:52:57;;;;;;;4.40;1.70;;;;;;;17.87;100.00;100903.86;104792;1254;60567;-52
2023/10/03 10:55:25;;;;;;;4.10;1.80;;;;;;;17.90;100.00;100905.87;104736;1254;60440;-52
2023/10/03 11:00:34;;;;;;;3.10;1.80;;;;;;;17.97;100.00;100941.77;101887;1289;600977;-51
2023/10/03 11:03:03;;;;;;;3.80;1.20;;;;;;;18.04;100.00;100932.60;104011;1267;60655;-52
2023/10/03 11:05:44;;;;;;;3.90;2.30;;;;;;;18.12;100.00;100926.85;104562;1271;59181;-53
2023/10/03 11:08:12;;;;;;;4.60;1.90;;;;;;;18.20;100.00;100926.54;106468;1266;72414;-53
2023/10/03 11:10:51;;;;;;;4.30;1.60;;;;;;;18.29;100.00;100924.96;104117;1270;67170;-53
2023/10/03 11:13:19;;;;;;;5.90;1.50;;;;;;;18.35;100.00;100927.48;104067;1263;196267;-52
2023/10/03 11:15:50;;;;;;;3.80;2.00;;;;;;;18.40;100.00;100918.42;104288;1267;59558;-54
2023/10/03 11:18:27;;;;;;;2.70;1.50;;;;;;;18.43;100.00;100916.92;104207;1263;59375;-53
2023/10/03 11:20:57;;;;;;;5.80;1.80;;;;;;;18.48;100.00;100912.09;104610;1264;71920;-55
2023/10/03 11:23:26;;;;;;;3.50;1.70;;;;;;;18.50;100.00;100907.58;104597;1268;67688;-53
2023/10/03 11:25:54;;;;;;;3.00;1.40;;;;;;;18.52;100.00;100904.20;107577;1263;72730;-53
2023/10/03 11:28:23;;;;;;;3.60;1.70;;;;;;;18.54;100.00;100904.81;104671;1261;59746;-50
2023/10/03 11:31:01;;;;;;;2.90;1.40;;;;;;;18.55;100.00;100902.20;104859;1260;60708;-53
2023/10/03 11:33:49;;;;;;;2.90;1.30;;;;;;;18.56;100.00;100896.88;106384;1260;73089;-56
2023/10/03 11:36:17;;;;;;;4.20;1.40;;;;;;;18.56;100.00;100894.32;104088;1265;67494;-54
2023/10/03 11:38:49;;;;;;;3.10;1.90;;;;;;;18.55;100.00;100893.98;104192;1265;71624;-52